sensor_id;sensor_type;location;lat;lon;timestamp;pressure;altitude;pressure_sealevel;temperature
61703;BMP280;47622;47.726;3.298;2023-12-20T00:01:35;99574.56;;;7.08
61703;BMP280;47622;47.726;3.298;2023-12-20T00:04:04;99576.63;;;7.16
61703;BMP280;47622;47.726;3.298;2023-12-20T00:06:30;99582.63;;;7.17
61703;BMP280;47622;47.726;3.298;2023-12-20T00:08:56;99586.78;;;7.12
61703;BMP280;47622;47.726;3.298;2023-12-20T00:11:23;99590.72;;;7.20
61703;BMP280;47622;47.726;3.298;2023-12-20T00:13:49;99589.66;;;7.26
61703;BMP280;47622;47.726;3.298;2023-12-20T00:16:15;99589.13;;;7.24
61703;BMP280;47622;47.726;3.298;2023-12-20T00:18:40;99592.25;;;7.26
61703;BMP280;47622;47.726;3.298;2023-12-20T00:21:05;99596.44;;;7.22
61703;BMP280;47622;47.726;3.298;2023-12-20T00:23:32;99589.66;;;7.26
61703;BMP280;47622;47.726;3.298;2023-12-20T00:25:57;99597.75;;;7.25
61703;BMP280;47622;47.726;3.298;2023-12-20T00:28:23;99606.88;;;7.22
61703;BMP280;47622;47.726;3.298;2023-12-20T00:30:48;99599.56;;;7.24
61703;BMP280;47622;47.726;3.298;2023-12-20T00:33:14;99611.56;;;7.25
61703;BMP280;47622;47.726;3.298;2023-12-20T00:35:40;99612.84;;;7.28
61703;BMP280;47622;47.726;3.298;2023-12-20T00:38:05;99618.09;;;7.33
61703;BMP280;47622;47.726;3.298;2023-12-20T00:40:32;99610.78;;;7.25
61703;BMP280;47622;47.726;3.298;2023-12-20T00:42:58;99618.84;;;7.23
61703;BMP280;47622;47.726;3.298;2023-12-20T00:45:24;99599.56;;;7.24
61703;BMP280;47622;47.726;3.298;2023-12-20T00:47:49;99605.81;;;7.28
61703;BMP280;47622;47.726;3.298;2023-12-20T00:50:15;99614.19;;;7.30
61703;BMP280;47622;47.726;3.298;2023-12-20T00:52:41;99614.69;;;7.32
61703;BMP280;47622;47.726;3.298;2023-12-20T00:55:07;99617.31;;;7.32
61703;BMP280;47622;47.726;3.298;2023-12-20T00:57:33;99626.19;;;7.31
61703;BMP280;47622;47.726;3.298;2023-12-20T00:59:58;99624.09;;;7.33
61703;BMP280;47622;47.726;3.298;2023-12-20T01:02:24;99641.81;;;7.26
61703;BMP280;47622;47.726;3.298;2023-12-20T01:04:49;99642.88;;;7.25
61703;BMP280;47622;47.726;3.298;2023-12-20T01:07:15;99644.41;;;7.26
61703;BMP280;47622;47.726;3.298;2023-12-20T01:09:40;99643.91;;;7.29
61703;BMP280;47622;47.726;3.298;2023-12-20T01:12:06;99624.06;;;7.28
61703;BMP280;47622;47.726;3.298;2023-12-20T01:14:31;99628.53;;;7.33
61703;BMP280;47622;47.726;3.298;2023-12-20T01:16:57;99624.34;;;7.27
61703;BMP280;47622;47.726;3.298;2023-12-20T01:19:23;99631.38;;;7.26
61703;BMP280;47622;47.726;3.298;2023-12-20T01:21:50;99632.94;;;7.27
61703;BMP280;47622;47.726;3.298;2023-12-20T01:24:15;99631.38;;;7.26
61703;BMP280;47622;47.726;3.298;2023-12-20T01:26:41;99629.84;;;7.30
61703;BMP280;47622;47.726;3.298;2023-12-20T01:29:06;99631.66;;;7.30
61703;BMP280;47622;47.726;3.298;2023-12-20T01:31:32;99635.56;;;7.27
61703;BMP280;47622;47.726;3.298;2023-12-20T01:33:57;99628.78;;;7.26
61703;BMP280;47622;47.726;3.298;2023-12-20T01:36:23;99625.66;;;7.24
61703;BMP280;47622;47.726;3.298;2023-12-20T01:38:48;99622.25;;;7.29
61703;BMP280;47622;47.726;3.298;2023-12-20T01:41:14;99620.94;;;7.36
61703;BMP280;47622;47.726;3.298;2023-12-20T01:43:40;99623.00;;;7.39
61703;BMP280;47622;47.726;3.298;2023-12-20T01:46:06;99618.88;;;7.33
61703;BMP280;47622;47.726;3.298;2023-12-20T01:48:31;99618.84;;;7.28
61703;BMP280;47622;47.726;3.298;2023-12-20T01:50:59;99627.47;;;7.29
61703;BMP280;47622;47.726;3.298;2023-12-20T01:53:25;99633.50;;;7.29
61703;BMP280;47622;47.726;3.298;2023-12-20T01:55:54;99641.81;;;7.31
61703;BMP280;47622;47.726;3.298;2023-12-20T01:58:20;99644.16;;;7.33
61703;BMP280;47622;47.726;3.298;2023-12-20T02:00:46;99642.31;;;7.38
61703;BMP280;47622;47.726;3.298;2023-12-20T02:03:12;99641.81;;;7.41
61703;BMP280;47622;47.726;3.298;2023-12-20T02:05:38;99646.53;;;7.34
61703;BMP280;47622;47.726;3.298;2023-12-20T02:08:04;99650.16;;;7.33
61703;BMP280;47622;47.726;3.298;2023-12-20T02:10:31;99649.09;;;7.39
61703;BMP280;47622;47.726;3.298;2023-12-20T02:12:56;99648.06;;;7.35
61703;BMP280;47622;47.726;3.298;2023-12-20T02:15:22;99645.47;;;7.40
61703;BMP280;47622;47.726;3.298;2023-12-20T02:17:49;99652.25;;;7.36
61703;BMP280;47622;47.726;3.298;2023-12-20T02:20:14;99652.75;;;7.38
61703;BMP280;47622;47.726;3.298;2023-12-20T02:22:40;99658.25;;;7.32
61703;BMP280;47622;47.726;3.298;2023-12-20T02:25:06;99668.41;;;7.38
61703;BMP280;47622;47.726;3.298;2023-12-20T02:27:31;99670.50;;;7.36
61703;BMP280;47622;47.726;3.298;2023-12-20T02:29:57;99671.03;;;7.33
61703;BMP280;47622;47.726;3.298;2023-12-20T02:32:24;99665.28;;;7.36
61703;BMP280;47622;47.726;3.298;2023-12-20T02:34:52;99662.69;;;7.36
61703;BMP280;47622;47.726;3.298;2023-12-20T02:37:17;99661.13;;;7.40
61703;BMP280;47622;47.726;3.298;2023-12-20T02:39:43;99654.31;;;7.39
61703;BMP280;47622;47.726;3.298;2023-12-20T02:42:08;99672.06;;;7.37
61703;BMP280;47622;47.726;3.298;2023-12-20T02:44:34;99664.75;;;7.39
61703;BMP280;47622;47.726;3.298;2023-12-20T02:46:59;99669.97;;;7.39
61703;BMP280;47622;47.726;3.298;2023-12-20T02:49:25;99674.16;;;7.40
61703;BMP280;47622;47.726;3.298;2023-12-20T02:51:50;99677.81;;;7.45
61703;BMP280;47622;47.726;3.298;2023-12-20T02:54:16;99679.41;;;7.46
61703;BMP280;47622;47.726;3.298;2023-12-20T02:56:42;99682.78;;;7.46
61703;BMP280;47622;47.726;3.298;2023-12-20T02:59:07;99687.22;;;7.51
61703;BMP280;47622;47.726;3.298;2023-12-20T03:01:34;99691.09;;;7.48
61703;BMP280;47622;47.726;3.298;2023-12-20T03:04:01;99685.13;;;7.53
61703;BMP280;47622;47.726;3.298;2023-12-20T03:06:26;99692.69;;;7.54
61703;BMP280;47622;47.726;3.298;2023-12-20T03:08:52;99701.03;;;7.51
61703;BMP280;47622;47.726;3.298;2023-12-20T03:11:18;99717.47;;;7.47
61703;BMP280;47622;47.726;3.298;2023-12-20T03:13:44;99707.56;;;7.43
61703;BMP280;47622;47.726;3.298;2023-12-20T03:16:10;99711.22;;;7.42
61703;BMP280;47622;47.726;3.298;2023-12-20T03:18:36;99705.72;;;7.39
61703;BMP280;47622;47.726;3.298;2023-12-20T03:21:02;99706.00;;;7.32
61703;BMP280;47622;47.726;3.298;2023-12-20T03:23:29;99707.50;;;7.23
61703;BMP280;47622;47.726;3.298;2023-12-20T03:25:56;99722.16;;;7.19
61703;BMP280;47622;47.726;3.298;2023-12-20T03:28:22;99724.25;;;7.32
61703;BMP280;47622;47.726;3.298;2023-12-20T03:30:48;99725.00;;;7.28
61703;BMP280;47622;47.726;3.298;2023-12-20T03:33:14;99741.97;;;7.25
61703;BMP280;47622;47.726;3.298;2023-12-20T03:35:39;99737.28;;;7.22
61703;BMP280;47622;47.726;3.298;2023-12-20T03:38:05;99740.66;;;7.23
61703;BMP280;47622;47.726;3.298;2023-12-20T03:40:30;99732.06;;;7.22
61703;BMP280;47622;47.726;3.298;2023-12-20T03:42:56;99739.09;;;7.17
61703;BMP280;47622;47.726;3.298;2023-12-20T03:45:21;99743.00;;;7.09
61703;BMP280;47622;47.726;3.298;2023-12-20T03:47:47;99749.78;;;7.10
61703;BMP280;47622;47.726;3.298;2023-12-20T03:50:13;99749.78;;;7.10
61703;BMP280;47622;47.726;3.298;2023-12-20T03:52:38;99751.88;;;7.08
61703;BMP280;47622;47.726;3.298;2023-12-20T03:55:04;99763.81;;;6.99
61703;BMP280;47622;47.726;3.298;2023-12-20T03:57:30;99755.47;;;6.97
61703;BMP280;47622;47.726;3.298;2023-12-20T03:59:55;99753.91;;;6.96
61703;BMP280;47622;47.726;3.298;2023-12-20T04:02:21;99750.47;;;6.90
61703;BMP280;47622;47.726;3.298;2023-12-20T04:04:46;99759.09;;;6.85
61703;BMP280;47622;47.726;3.298;2023-12-20T04:07:12;99764.03;;;6.82
61703;BMP280;47622;47.726;3.298;2023-12-20T04:09:37;99763.44;;;6.70
61703;BMP280;47622;47.726;3.298;2023-12-20T04:12:03;99770.44;;;6.64
61703;BMP280;47622;47.726;3.298;2023-12-20T04:14:28;99775.13;;;6.62
61703;BMP280;47622;47.726;3.298;2023-12-20T04:16:54;99775.91;;;6.63
61703;BMP280;47622;47.726;3.298;2023-12-20T04:19:19;99788.38;;;6.50
61703;BMP280;47622;47.726;3.298;2023-12-20T04:21:45;99782.91;;;6.52
61703;BMP280;47622;47.726;3.298;2023-12-20T04:24:11;99790.97;;;6.45
61703;BMP280;47622;47.726;3.298;2023-12-20T04:26:36;99782.50;;;6.33
61703;BMP280;47622;47.726;3.298;2023-12-20T04:29:02;99792.91;;;6.33
61703;BMP280;47622;47.726;3.298;2023-12-20T04:31:28;99791.38;;;6.32
61703;BMP280;47622;47.726;3.298;2023-12-20T04:33:53;99794.31;;;6.41
61703;BMP280;47622;47.726;3.298;2023-12-20T04:36:19;99796.34;;;6.34
61703;BMP280;47622;47.726;3.298;2023-12-20T04:38:44;99801.53;;;6.28
61703;BMP280;47622;47.726;3.298;2023-12-20T04:41:10;99799.41;;;6.25
61703;BMP280;47622;47.726;3.298;2023-12-20T04:43:35;99799.88;;;6.17
61703;BMP280;47622;47.726;3.298;2023-12-20T04:46:01;99810.66;;;5.99
61703;BMP280;47622;47.726;3.298;2023-12-20T04:48:27;99815.72;;;5.84
61703;BMP280;47622;47.726;3.298;2023-12-20T04:50:53;99804.22;;;5.75
61703;BMP280;47622;47.726;3.298;2023-12-20T04:53:18;99798.66;;;5.66
61703;BMP280;47622;47.726;3.298;2023-12-20T04:55:44;99806.13;;;5.57
61703;BMP280;47622;47.726;3.298;2023-12-20T04:58:09;99819.00;;;5.47
61703;BMP280;47622;47.726;3.298;2023-12-20T05:00:35;99804.59;;;5.34
61703;BMP280;47622;47.726;3.298;2023-12-20T05:03:00;99805.19;;;5.20
61703;BMP280;47622;47.726;3.298;2023-12-20T05:05:26;99817.09;;;5.15
61703;BMP280;47622;47.726;3.298;2023-12-20T05:07:51;99818.09;;;5.09
61703;BMP280;47622;47.726;3.298;2023-12-20T05:10:18;99827.31;;;5.00
61703;BMP280;47622;47.726;3.298;2023-12-20T05:12:43;99830.94;;;4.99
61703;BMP280;47622;47.726;3.298;2023-12-20T05:15:09;99822.94;;;4.84
61703;BMP280;47622;47.726;3.298;2023-12-20T05:17:34;99826.34;;;4.84
61703;BMP280;47622;47.726;3.298;2023-12-20T05:20:00;99834.44;;;4.88
61703;BMP280;47622;47.726;3.298;2023-12-20T05:22:26;99842.81;;;4.90
61703;BMP280;47622;47.726;3.298;2023-12-20T05:24:53;99836.50;;;4.86
61703;BMP280;47622;47.726;3.298;2023-12-20T05:27:18;99831.31;;;4.86
61703;BMP280;47622;47.726;3.298;2023-12-20T05:29:44;99838.53;;;4.84
61703;BMP280;47622;47.726;3.298;2023-12-20T05:32:10;99841.03;;;4.79
61703;BMP280;47622;47.726;3.298;2023-12-20T05:34:35;99833.22;;;4.74
61703;BMP280;47622;47.726;3.298;2023-12-20T05:37:01;99823.22;;;4.66
61703;BMP280;47622;47.726;3.298;2023-12-20T05:39:27;99827.53;;;4.60
61703;BMP280;47622;47.726;3.298;2023-12-20T05:41:52;99829.47;;;4.48
61703;BMP280;47622;47.726;3.298;2023-12-20T05:44:18;99822.66;;;4.47
61703;BMP280;47622;47.726;3.298;2023-12-20T05:46:44;99832.28;;;4.46
61703;BMP280;47622;47.726;3.298;2023-12-20T05:49:09;99833.22;;;4.40
61703;BMP280;47622;47.726;3.298;2023-12-20T05:51:36;99845.69;;;4.38
61703;BMP280;47622;47.726;3.298;2023-12-20T05:54:01;99837.81;;;4.33
61703;BMP280;47622;47.726;3.298;2023-12-20T05:56:27;99840.84;;;4.30
61703;BMP280;47622;47.726;3.298;2023-12-20T05:58:52;99843.44;;;4.30
61703;BMP280;47622;47.726;3.298;2023-12-20T06:01:18;99841.88;;;4.29
61703;BMP280;47622;47.726;3.298;2023-12-20T06:03:44;99855.25;;;4.21
61703;BMP280;47622;47.726;3.298;2023-12-20T06:06:11;99851.63;;;4.22
61703;BMP280;47622;47.726;3.298;2023-12-20T06:08:38;99843.25;;;4.20
61703;BMP280;47622;47.726;3.298;2023-12-20T06:11:03;99847.41;;;4.16
61703;BMP280;47622;47.726;3.298;2023-12-20T06:13:29;99846.72;;;4.09
61703;BMP280;47622;47.726;3.298;2023-12-20T06:15:55;99853.63;;;4.03
61703;BMP280;47622;47.726;3.298;2023-12-20T06:18:20;99856.63;;;3.95
61703;BMP280;47622;47.726;3.298;2023-12-20T06:20:46;99858.34;;;3.89
61703;BMP280;47622;47.726;3.298;2023-12-20T06:23:12;99868.38;;;3.86
61703;BMP280;47622;47.726;3.298;2023-12-20T06:25:37;99874.00;;;3.83
61703;BMP280;47622;47.726;3.298;2023-12-20T06:28:03;99875.72;;;3.77
61703;BMP280;47622;47.726;3.298;2023-12-20T06:30:28;99869.91;;;3.70
61703;BMP280;47622;47.726;3.298;2023-12-20T06:32:54;99884.44;;;3.71
61703;BMP280;47622;47.726;3.298;2023-12-20T06:35:22;99885.91;;;3.67
61703;BMP280;47622;47.726;3.298;2023-12-20T06:37:48;99885.25;;;3.60
61703;BMP280;47622;47.726;3.298;2023-12-20T06:40:13;99893.28;;;3.58
61703;BMP280;47622;47.726;3.298;2023-12-20T06:42:39;99886.09;;;3.48
61703;BMP280;47622;47.726;3.298;2023-12-20T06:45:05;99884.84;;;3.39
61703;BMP280;47622;47.726;3.298;2023-12-20T06:47:30;99890.94;;;3.33
61703;BMP280;47622;47.726;3.298;2023-12-20T06:49:56;99896.13;;;3.33
61703;BMP280;47622;47.726;3.298;2023-12-20T06:52:21;99881.47;;;3.27
61703;BMP280;47622;47.726;3.298;2023-12-20T06:54:47;99894.13;;;3.24
61703;BMP280;47622;47.726;3.298;2023-12-20T06:57:13;99888.94;;;3.12
61703;BMP280;47622;47.726;3.298;2023-12-20T06:59:40;99890.97;;;3.10
61703;BMP280;47622;47.726;3.298;2023-12-20T07:02:05;99902.44;;;3.14
61703;BMP280;47622;47.726;3.298;2023-12-20T07:04:31;99902.66;;;3.24
61703;BMP280;47622;47.726;3.298;2023-12-20T07:06:56;99906.13;;;3.30
61703;BMP280;47622;47.726;3.298;2023-12-20T07:09:26;99909.31;;;3.08
61703;BMP280;47622;47.726;3.298;2023-12-20T07:11:52;99915.50;;;3.19
61703;BMP280;47622;47.726;3.298;2023-12-20T07:14:17;99917.09;;;3.20
61703;BMP280;47622;47.726;3.298;2023-12-20T07:16:43;99923.75;;;3.16
61703;BMP280;47622;47.726;3.298;2023-12-20T07:19:08;99907.50;;;3.09
61703;BMP280;47622;47.726;3.298;2023-12-20T07:21:34;99906.94;;;3.07
61703;BMP280;47622;47.726;3.298;2023-12-20T07:24:00;99900.63;;;3.03
61703;BMP280;47622;47.726;3.298;2023-12-20T07:26:25;99916.16;;;3.03
61703;BMP280;47622;47.726;3.298;2023-12-20T07:28:51;99910.56;;;3.06
61703;BMP280;47622;47.726;3.298;2023-12-20T07:31:16;99916.88;;;3.10
61703;BMP280;47622;47.726;3.298;2023-12-20T07:33:42;99922.16;;;3.15
61703;BMP280;47622;47.726;3.298;2023-12-20T07:36:08;99917.53;;;3.17
61703;BMP280;47622;47.726;3.298;2023-12-20T07:38:34;99914.47;;;3.08
61703;BMP280;47622;47.726;3.298;2023-12-20T07:41:00;99906.59;;;3.03
61703;BMP280;47622;47.726;3.298;2023-12-20T07:43:25;99908.84;;;3.00
61703;BMP280;47622;47.726;3.298;2023-12-20T07:45:51;99902.53;;;2.95
61703;BMP280;47622;47.726;3.298;2023-12-20T07:48:16;99909.19;;;2.91
61703;BMP280;47622;47.726;3.298;2023-12-20T07:50:42;99913.69;;;2.96
61703;BMP280;47622;47.726;3.298;2023-12-20T07:53:08;99925.41;;;2.99
61703;BMP280;47622;47.726;3.298;2023-12-20T07:55:33;99924.72;;;3.03
61703;BMP280;47622;47.726;3.298;2023-12-20T07:58:00;99933.09;;;3.17
61703;BMP280;47622;47.726;3.298;2023-12-20T08:00:25;99931.97;;;3.36
61703;BMP280;47622;47.726;3.298;2023-12-20T08:02:54;99924.94;;;3.60
61703;BMP280;47622;47.726;3.298;2023-12-20T08:05:20;99934.38;;;3.78
61703;BMP280;47622;47.726;3.298;2023-12-20T08:07:45;99937.78;;;4.07
61703;BMP280;47622;47.726;3.298;2023-12-20T08:10:11;99929.69;;;4.32
61703;BMP280;47622;47.726;3.298;2023-12-20T08:12:36;99932.53;;;4.81
61703;BMP280;47622;47.726;3.298;2023-12-20T08:15:02;99939.34;;;5.21
61703;BMP280;47622;47.726;3.298;2023-12-20T08:17:29;99944.28;;;5.39
61703;BMP280;47622;47.726;3.298;2023-12-20T08:19:54;99947.84;;;5.77
61703;BMP280;47622;47.726;3.298;2023-12-20T08:22:20;99939.84;;;6.05
61703;BMP280;47622;47.726;3.298;2023-12-20T08:24:45;99942.81;;;6.46
61703;BMP280;47622;47.726;3.298;2023-12-20T08:27:11;99939.88;;;6.74
61703;BMP280;47622;47.726;3.298;2023-12-20T08:29:36;99949.66;;;6.94
61703;BMP280;47622;47.726;3.298;2023-12-20T08:32:02;99948.19;;;7.08
61703;BMP280;47622;47.726;3.298;2023-12-20T08:34:28;99952.13;;;7.16
61703;BMP280;47622;47.726;3.298;2023-12-20T08:36:53;99948.13;;;7.61
61703;BMP280;47622;47.726;3.298;2023-12-20T08:39:19;99956.56;;;7.83
61703;BMP280;47622;47.726;3.298;2023-12-20T08:41:44;99960.50;;;7.86
61703;BMP280;47622;47.726;3.298;2023-12-20T08:44:10;99965.44;;;7.92
61703;BMP280;47622;47.726;3.298;2023-12-20T08:46:36;99965.75;;;8.01
61703;BMP280;47622;47.726;3.298;2023-12-20T08:49:02;99961.84;;;8.09
61703;BMP280;47622;47.726;3.298;2023-12-20T08:51:27;99969.16;;;8.07
61703;BMP280;47622;47.726;3.298;2023-12-20T08:53:53;99972.59;;;8.33
61703;BMP280;47622;47.726;3.298;2023-12-20T08:56:19;99977.56;;;8.65
61703;BMP280;47622;47.726;3.298;2023-12-20T08:58:48;99983.81;;;8.69
61703;BMP280;47622;47.726;3.298;2023-12-20T09:01:14;99985.34;;;8.09
61703;BMP280;47622;47.726;3.298;2023-12-20T09:03:40;99970.31;;;7.53
61703;BMP280;47622;47.726;3.298;2023-12-20T09:06:06;99963.09;;;7.23
61703;BMP280;47622;47.726;3.298;2023-12-20T09:08:31;99968.88;;;7.25
61703;BMP280;47622;47.726;3.298;2023-12-20T09:10:57;99966.78;;;7.22
61703;BMP280;47622;47.726;3.298;2023-12-20T09:13:23;99965.44;;;6.77
61703;BMP280;47622;47.726;3.298;2023-12-20T09:15:57;99973.31;;;6.82
61703;BMP280;47622;47.726;3.298;2023-12-20T09:18:22;99971.25;;;6.25
61703;BMP280;47622;47.726;3.298;2023-12-20T09:20:48;99974.09;;;6.51
61703;BMP280;47622;47.726;3.298;2023-12-20T09:23:13;99968.94;;;6.56
61703;BMP280;47622;47.726;3.298;2023-12-20T09:25:39;99972.81;;;6.53
61703;BMP280;47622;47.726;3.298;2023-12-20T09:28:04;99966.00;;;6.20
61703;BMP280;47622;47.726;3.298;2023-12-20T09:30:30;99965.88;;;6.32
61703;BMP280;47622;47.726;3.298;2023-12-20T09:32:57;99976.03;;;6.34
61703;BMP280;47622;47.726;3.298;2023-12-20T09:35:23;99978.63;;;6.34
61703;BMP280;47622;47.726;3.298;2023-12-20T09:37:49;99977.19;;;6.48
61703;BMP280;47622;47.726;3.298;2023-12-20T09:40:18;99982.88;;;6.72
61703;BMP280;47622;47.726;3.298;2023-12-20T09:42:47;99984.22;;;6.79
61703;BMP280;47622;47.726;3.298;2023-12-20T09:45:15;99988.44;;;6.85
61703;BMP280;47622;47.726;3.298;2023-12-20T09:47:43;99986.06;;;6.79
61703;BMP280;47622;47.726;3.298;2023-12-20T09:50:09;99985.75;;;6.75
61703;BMP280;47622;47.726;3.298;2023-12-20T09:52:36;99987.72;;;6.58
61703;BMP280;47622;47.726;3.298;2023-12-20T09:55:03;99994.78;;;6.63
61703;BMP280;47622;47.726;3.298;2023-12-20T09:57:32;99986.56;;;6.81
61703;BMP280;47622;47.726;3.298;2023-12-20T09:59:57;99988.69;;;7.84
61703;BMP280;47622;47.726;3.298;2023-12-20T10:02:25;99988.00;;;8.70
61703;BMP280;47622;47.726;3.298;2023-12-20T10:04:55;99993.25;;;8.85
61703;BMP280;47622;47.726;3.298;2023-12-20T10:07:21;99992.34;;;9.15
61703;BMP280;47622;47.726;3.298;2023-12-20T10:09:48;99991.88;;;9.72
61703;BMP280;47622;47.726;3.298;2023-12-20T10:12:13;99994.25;;;9.74
61703;BMP280;47622;47.726;3.298;2023-12-20T10:14:39;100001.28;;;9.73
61703;BMP280;47622;47.726;3.298;2023-12-20T10:17:05;99995.69;;;9.36
61703;BMP280;47622;47.726;3.298;2023-12-20T10:19:32;99988.44;;;9.23
61703;BMP280;47622;47.726;3.298;2023-12-20T10:21:59;99986.13;;;9.11
61703;BMP280;47622;47.726;3.298;2023-12-20T10:24:28;99979.38;;;9.64
61703;BMP280;47622;47.726;3.298;2023-12-20T10:27:08;99979.66;;;10.94
61703;BMP280;47622;47.726;3.298;2023-12-20T10:29:37;99984.66;;;11.14
61703;BMP280;47622;47.726;3.298;2023-12-20T10:32:31;99978.06;;;11.17
61703;BMP280;47622;47.726;3.298;2023-12-20T10:34:57;99979.81;;;10.50
61703;BMP280;47622;47.726;3.298;2023-12-20T10:37:24;99983.84;;;10.66
61703;BMP280;47622;47.726;3.298;2023-12-20T10:39:52;99976.47;;;10.44
61703;BMP280;47622;47.726;3.298;2023-12-20T10:42:22;99969.84;;;9.79
61703;BMP280;47622;47.726;3.298;2023-12-20T10:44:50;99970.53;;;9.50
61703;BMP280;47622;47.726;3.298;2023-12-20T10:47:17;99961.31;;;10.02
61703;BMP280;47622;47.726;3.298;2023-12-20T10:49:43;99955.56;;;10.00
61703;BMP280;47622;47.726;3.298;2023-12-20T10:52:11;99955.16;;;9.83
61703;BMP280;47622;47.726;3.298;2023-12-20T10:54:37;99947.19;;;9.54
61703;BMP280;47622;47.726;3.298;2023-12-20T10:57:05;99950.81;;;8.98
61703;BMP280;47622;47.726;3.298;2023-12-20T10:59:33;99948.69;;;9.21
61703;BMP280;47622;47.726;3.298;2023-12-20T11:02:03;99942.41;;;9.06
61703;BMP280;47622;47.726;3.298;2023-12-20T11:04:47;99947.13;;;9.09
61703;BMP280;47622;47.726;3.298;2023-12-20T11:07:21;99954.44;;;9.07
61703;BMP280;47622;47.726;3.298;2023-12-20T11:12:57;99946.97;;;8.65
61703;BMP280;47622;47.726;3.298;2023-12-20T11:15:23;99942.00;;;8.64
61703;BMP280;47622;47.726;3.298;2023-12-20T11:17:57;99942.00;;;8.84
61703;BMP280;47622;47.726;3.298;2023-12-20T11:20:36;99937.56;;;8.64
61703;BMP280;47622;47.726;3.298;2023-12-20T11:23:03;99924.22;;;8.50
61703;BMP280;47622;47.726;3.298;2023-12-20T11:25:29;99933.91;;;8.14
61703;BMP280;47622;47.726;3.298;2023-12-20T11:28:12;99933.63;;;8.06
61703;BMP280;47622;47.726;3.298;2023-12-20T11:30:57;99935.72;;;7.93
61703;BMP280;47622;47.726;3.298;2023-12-20T11:33:38;99919.50;;;7.86
61703;BMP280;47622;47.726;3.298;2023-12-20T11:36:13;99923.97;;;7.96
61703;BMP280;47622;47.726;3.298;2023-12-20T11:38:53;99914.81;;;7.93
61703;BMP280;47622;47.726;3.298;2023-12-20T11:41:22;99918.47;;;7.82
61703;BMP280;47622;47.726;3.298;2023-12-20T11:43:53;99916.84;;;7.71
61703;BMP280;47622;47.726;3.298;2023-12-20T11:46:18;99906.41;;;7.71
61703;BMP280;47622;47.726;3.298;2023-12-20T11:48:44;99903.78;;;7.71
61703;BMP280;47622;47.726;3.298;2023-12-20T11:51:10;99915.34;;;7.80
61703;BMP280;47622;47.726;3.298;2023-12-20T11:53:36;99906.41;;;7.81
61703;BMP280;47622;47.726;3.298;2023-12-20T11:56:03;99901.75;;;7.78
61703;BMP280;47622;47.726;3.298;2023-12-20T11:58:29;99897.56;;;7.72
61703;BMP280;47622;47.726;3.298;2023-12-20T12:00:56;99898.59;;;7.76
61703;BMP280;47622;47.726;3.298;2023-12-20T12:03:21;99910.34;;;7.74
61703;BMP280;47622;47.726;3.298;2023-12-20T12:05:49;99910.63;;;7.72
61703;BMP280;47622;47.726;3.298;2023-12-20T12:08:15;99898.59;;;7.56
61703;BMP280;47622;47.726;3.298;2023-12-20T12:10:41;99906.16;;;7.57
61703;BMP280;47622;47.726;3.298;2023-12-20T12:13:06;99905.34;;;7.47
61703;BMP280;47622;47.726;3.298;2023-12-20T12:15:32;99905.84;;;7.43
61703;BMP280;47622;47.726;3.298;2023-12-20T12:17:58;99899.03;;;7.48
61703;BMP280;47622;47.726;3.298;2023-12-20T12:20:24;99905.88;;;7.54
61703;BMP280;47622;47.726;3.298;2023-12-20T12:23:04;99887.59;;;7.59
61703;BMP280;47622;47.726;3.298;2023-12-20T12:25:31;99878.25;;;7.68
61703;BMP280;47622;47.726;3.298;2023-12-20T12:28:00;99883.72;;;7.66
61703;BMP280;47622;47.726;3.298;2023-12-20T12:30:26;99879.81;;;7.74
61703;BMP280;47622;47.726;3.298;2023-12-20T12:32:52;99884.00;;;7.80
61703;BMP280;47622;47.726;3.298;2023-12-20T12:35:19;99871.47;;;7.72
61703;BMP280;47622;47.726;3.298;2023-12-20T12:37:45;99888.44;;;7.69
61703;BMP280;47622;47.726;3.298;2023-12-20T12:40:12;99885.56;;;7.76
61703;BMP280;47622;47.726;3.298;2023-12-20T12:42:39;99881.38;;;7.75
61703;BMP280;47622;47.726;3.298;2023-12-20T12:45:05;99877.19;;;7.74
61703;BMP280;47622;47.726;3.298;2023-12-20T12:47:31;99874.06;;;7.87
61703;BMP280;47622;47.726;3.298;2023-12-20T12:49:58;99871.72;;;7.96
61703;BMP280;47622;47.726;3.298;2023-12-20T12:52:23;99861.03;;;8.03
61703;BMP280;47622;47.726;3.298;2023-12-20T12:54:49;99865.47;;;7.97
61703;BMP280;47622;47.726;3.298;2023-12-20T12:57:15;99859.47;;;8.07
61703;BMP280;47622;47.726;3.298;2023-12-20T12:59:42;99854.25;;;7.91
61703;BMP280;47622;47.726;3.298;2023-12-20T13:02:08;99857.84;;;7.70
61703;BMP280;47622;47.726;3.298;2023-12-20T13:04:33;99857.38;;;7.68
61703;BMP280;47622;47.726;3.298;2023-12-20T13:06:59;99862.06;;;7.86
61703;BMP280;47622;47.726;3.298;2023-12-20T13:09:25;99850.56;;;7.92
61703;BMP280;47622;47.726;3.298;2023-12-20T13:11:50;99848.50;;;8.05
61703;BMP280;47622;47.726;3.298;2023-12-20T13:14:16;99841.72;;;7.83
61703;BMP280;47622;47.726;3.298;2023-12-20T13:16:42;99850.06;;;7.75
61703;BMP280;47622;47.726;3.298;2023-12-20T13:19:08;99843.75;;;7.71
61703;BMP280;47622;47.726;3.298;2023-12-20T13:21:33;99847.47;;;7.80
61703;BMP280;47622;47.726;3.298;2023-12-20T13:23:59;99850.56;;;7.87
61703;BMP280;47622;47.726;3.298;2023-12-20T13:26:24;99837.53;;;7.82
61703;BMP280;47622;47.726;3.298;2023-12-20T13:28:50;99846.13;;;7.62
61703;BMP280;47622;47.726;3.298;2023-12-20T13:31:15;99834.34;;;7.45
61703;BMP280;47622;47.726;3.298;2023-12-20T13:33:41;99819.97;;;7.37
61703;BMP280;47622;47.726;3.298;2023-12-20T13:36:07;99816.06;;;7.39
61703;BMP280;47622;47.726;3.298;2023-12-20T13:38:32;99803.03;;;7.34
61703;BMP280;47622;47.726;3.298;2023-12-20T13:40:58;99796.75;;;7.30
61703;BMP280;47622;47.726;3.298;2023-12-20T13:43:24;99795.22;;;7.34
61703;BMP280;47622;47.726;3.298;2023-12-20T13:45:50;99794.16;;;7.35
61703;BMP280;47622;47.726;3.298;2023-12-20T13:48:16;99796.78;;;7.40
61703;BMP280;47622;47.726;3.298;2023-12-20T13:50:42;99794.22;;;7.56
61703;BMP280;47622;47.726;3.298;2023-12-20T13:53:07;99791.84;;;7.64
61703;BMP280;47622;47.726;3.298;2023-12-20T13:55:33;99795.47;;;7.58
61703;BMP280;47622;47.726;3.298;2023-12-20T13:57:58;99782.16;;;7.70
61703;BMP280;47622;47.726;3.298;2023-12-20T14:00:24;99772.78;;;7.74
61703;BMP280;47622;47.726;3.298;2023-12-20T14:02:50;99773.28;;;7.71
61703;BMP280;47622;47.726;3.298;2023-12-20T14:05:16;99780.13;;;7.67
61703;BMP280;47622;47.726;3.298;2023-12-20T14:07:46;99779.56;;;7.70
61703;BMP280;47622;47.726;3.298;2023-12-20T14:10:12;99775.38;;;7.54
61703;BMP280;47622;47.726;3.298;2023-12-20T14:12:39;99776.19;;;7.54
61703;BMP280;47622;47.726;3.298;2023-12-20T14:15:05;99784.25;;;7.53
61703;BMP280;47622;47.726;3.298;2023-12-20T14:17:40;99786.34;;;7.51
61703;BMP280;47622;47.726;3.298;2023-12-20T14:20:07;99788.97;;;7.56